createdAt,value
2018-07-15T00:00:53.693Z,17.21
2018-07-15T00:03:21.279Z,17.20
2018-07-15T00:05:49.995Z,17.20
2018-07-15T00:08:17.619Z,17.19
2018-07-15T00:10:46.973Z,17.17
2018-07-15T00:13:15.163Z,17.13
2018-07-15T00:15:43.395Z,17.03
2018-07-15T00:18:10.975Z,16.93
2018-07-15T00:20:38.868Z,16.81
2018-07-15T00:23:06.469Z,16.71
2018-07-15T00:25:34.066Z,16.64
2018-07-15T00:28:02.279Z,16.56
2018-07-15T00:30:30.764Z,16.50
2018-07-15T00:32:58.961Z,16.45
2018-07-15T00:35:27.281Z,16.41
2018-07-15T00:37:56.026Z,16.38
2018-07-15T00:40:23.697Z,16.34
2018-07-15T00:42:51.615Z,16.30
2018-07-15T00:45:20.779Z,16.26
2018-07-15T00:47:48.402Z,16.21
2018-07-15T00:50:16.242Z,16.17
2018-07-15T00:52:44.776Z,16.14
2018-07-15T00:55:12.411Z,16.10
2018-07-15T00:57:40.012Z,16.09
2018-07-15T01:00:08.147Z,16.07
2018-07-15T01:02:35.951Z,16.05
2018-07-15T01:05:03.570Z,16.03
2018-07-15T01:07:31.708Z,16.01
2018-07-15T01:09:59.395Z,15.97
2018-07-15T01:12:27.031Z,15.93
2018-07-15T01:14:54.924Z,15.90
2018-07-15T01:17:22.521Z,15.87
2018-07-15T01:19:50.105Z,15.82
2018-07-15T01:22:17.726Z,15.75
2018-07-15T01:24:45.582Z,15.74
2018-07-15T01:27:13.212Z,15.71
2018-07-15T01:29:40.825Z,15.70
2018-07-15T01:32:08.702Z,15.70
2018-07-15T01:34:36.275Z,15.71
2018-07-15T01:37:03.935Z,15.70
2018-07-15T01:39:32.125Z,15.69
2018-07-15T01:41:59.766Z,15.65
2018-07-15T01:44:27.372Z,15.59
2018-07-15T01:46:54.935Z,15.55
2018-07-15T01:49:22.799Z,15.50
2018-07-15T01:51:50.404Z,15.45
2018-07-15T01:54:18.023Z,15.42
2018-07-15T01:56:45.615Z,15.42
2018-07-15T01:59:13.466Z,15.42
2018-07-15T02:01:41.063Z,15.42
2018-07-15T02:04:09.286Z,15.39
2018-07-15T02:06:37.170Z,15.36
2018-07-15T02:09:04.856Z,15.31
2018-07-15T02:11:32.418Z,15.29
2018-07-15T02:14:00.032Z,15.27
2018-07-15T02:16:27.918Z,15.26
2018-07-15T02:18:56.804Z,15.25
2018-07-15T02:21:24.395Z,15.25
2018-07-15T02:23:54.003Z,15.25
2018-07-15T02:26:21.846Z,15.24
2018-07-15T02:28:49.414Z,15.25
2018-07-15T02:31:17.014Z,15.23
2018-07-15T02:33:44.610Z,15.22
2018-07-15T02:36:12.505Z,15.19
2018-07-15T02:38:40.096Z,15.15
2018-07-15T02:41:07.733Z,15.11
2018-07-15T02:43:35.616Z,15.10
2018-07-15T02:46:03.269Z,15.06
2018-07-15T02:48:30.874Z,15.05
2018-07-15T02:50:58.512Z,15.03
2018-07-15T02:53:26.395Z,15.03
2018-07-15T02:55:53.974Z,15.00
2018-07-15T02:58:21.553Z,14.98
2018-07-15T03:00:49.544Z,14.95
2018-07-15T03:03:17.142Z,14.92
2018-07-15T03:05:44.722Z,14.89
2018-07-15T03:08:12.610Z,14.87
2018-07-15T03:10:40.244Z,14.83
2018-07-15T03:13:07.828Z,14.81
2018-07-15T03:15:35.453Z,14.77
2018-07-15T03:18:03.392Z,14.73
2018-07-15T03:20:31.022Z,14.68
2018-07-15T03:22:58.635Z,14.63
2018-07-15T03:25:26.218Z,14.57
2018-07-15T03:27:54.231Z,14.54
2018-07-15T03:30:21.863Z,14.53
2018-07-15T03:32:49.542Z,14.50
2018-07-15T03:35:17.174Z,14.49
2018-07-15T03:37:45.067Z,14.47
2018-07-15T03:40:12.657Z,14.43
2018-07-15T03:42:40.239Z,14.39
2018-07-15T03:45:07.849Z,14.35
2018-07-15T03:47:35.822Z,14.34
2018-07-15T03:50:03.459Z,14.33
2018-07-15T03:52:31.108Z,14.31
2018-07-15T03:55:00.271Z,14.31
2018-07-15T03:57:28.246Z,14.29
2018-07-15T03:59:56.359Z,14.26
2018-07-15T04:02:23.988Z,14.24
2018-07-15T04:04:51.587Z,14.24
2018-07-15T04:07:19.443Z,14.23
2018-07-15T04:09:47.036Z,14.23
2018-07-15T04:12:14.651Z,14.23
2018-07-15T04:14:42.268Z,14.28
2018-07-15T04:17:10.151Z,14.33
2018-07-15T04:19:38.189Z,14.33
2018-07-15T04:22:05.763Z,14.37
2018-07-15T04:24:33.350Z,14.40
2018-07-15T04:27:01.401Z,14.47
2018-07-15T04:29:29.007Z,14.54
2018-07-15T04:31:56.599Z,14.57
2018-07-15T04:34:24.203Z,14.60
2018-07-15T04:36:52.097Z,14.68
2018-07-15T04:39:19.725Z,14.80
2018-07-15T04:41:47.310Z,14.87
2018-07-15T04:44:14.902Z,14.95
2018-07-15T04:46:43.404Z,15.05
2018-07-15T04:49:10.994Z,15.15
2018-07-15T04:51:38.623Z,15.21
2018-07-15T04:54:06.476Z,15.29
2018-07-15T04:56:34.075Z,15.40
2018-07-15T04:59:01.679Z,15.52
2018-07-15T05:01:30.376Z,15.64
2018-07-15T05:03:57.991Z,15.72
2018-07-15T05:06:25.605Z,15.82
2018-07-15T05:08:53.194Z,15.98
2018-07-15T05:11:20.872Z,16.12
2018-07-15T05:13:48.476Z,16.30
2018-07-15T05:16:17.646Z,16.45
2018-07-15T05:18:45.510Z,16.60
2018-07-15T05:21:13.091Z,16.76
2018-07-15T05:23:40.722Z,16.90
2018-07-15T05:26:08.330Z,17.06
2018-07-15T05:28:36.196Z,17.21
2018-07-15T05:31:03.785Z,17.34
2018-07-15T05:33:31.399Z,17.44
2018-07-15T05:35:59.006Z,17.58
2018-07-15T05:38:26.866Z,17.69
2018-07-15T05:40:54.454Z,17.80
2018-07-15T05:43:22.028Z,17.89
2018-07-15T05:45:49.657Z,17.99
2018-07-15T05:48:17.557Z,18.10
2018-07-15T05:50:45.171Z,18.25
2018-07-15T05:53:12.789Z,18.37
2018-07-15T05:55:40.396Z,18.49
2018-07-15T05:58:08.358Z,18.61
2018-07-15T06:00:35.998Z,18.73
2018-07-15T06:03:03.628Z,18.83
2018-07-15T06:05:31.252Z,18.93
2018-07-15T06:07:59.207Z,19.03
2018-07-15T06:10:26.816Z,19.08
2018-07-15T06:12:56.214Z,19.18
2018-07-15T06:15:23.798Z,19.23
2018-07-15T06:17:51.700Z,19.29
2018-07-15T06:20:19.392Z,19.39
2018-07-15T06:22:47.070Z,19.51
2018-07-15T06:25:14.705Z,19.68
2018-07-15T06:27:42.623Z,19.80
2018-07-15T06:30:10.231Z,19.92
2018-07-15T06:32:37.866Z,20.02
2018-07-15T06:35:05.466Z,20.10
2018-07-15T06:37:34.223Z,20.20
2018-07-15T06:40:01.911Z,20.26
2018-07-15T06:42:29.610Z,20.35
2018-07-15T06:44:57.239Z,20.45
2018-07-15T06:47:26.224Z,20.53
2018-07-15T06:49:53.811Z,20.61
2018-07-15T06:52:21.460Z,20.68
2018-07-15T06:54:49.614Z,20.75
2018-07-15T06:57:18.649Z,20.82
2018-07-15T06:59:46.898Z,20.96
2018-07-15T07:02:14.748Z,21.08
2018-07-15T07:04:43.851Z,21.17
2018-07-15T07:07:11.525Z,21.24
2018-07-15T07:09:39.326Z,21.34
2018-07-15T07:12:06.942Z,21.47
2018-07-15T07:14:34.537Z,21.54
2018-07-15T07:17:02.446Z,21.62
2018-07-15T07:19:30.444Z,21.70
2018-07-15T07:21:58.044Z,21.81
2018-07-15T07:24:25.911Z,21.90
2018-07-15T07:26:53.524Z,21.98
2018-07-15T07:29:21.258Z,22.04
2018-07-15T07:31:49.195Z,22.17
2018-07-15T07:34:16.794Z,22.29
2018-07-15T07:36:44.426Z,22.42
2018-07-15T07:39:12.439Z,22.52
2018-07-15T07:41:40.108Z,22.62
2018-07-15T07:44:07.702Z,22.73
2018-07-15T07:46:37.619Z,22.85
2018-07-15T07:49:05.772Z,22.94
2018-07-15T07:51:33.399Z,23.04
2018-07-15T07:54:01.279Z,23.09
2018-07-15T07:56:28.873Z,23.16
2018-07-15T07:58:57.382Z,23.23
2018-07-15T08:01:25.895Z,23.33
2018-07-15T08:03:53.466Z,23.41
2018-07-15T08:06:21.998Z,23.51
2018-07-15T08:08:50.737Z,23.55
2018-07-15T08:11:18.339Z,23.60
2018-07-15T08:13:45.956Z,23.67
2018-07-15T08:16:13.797Z,23.74
2018-07-15T08:18:41.522Z,23.77
2018-07-15T08:21:11.999Z,23.84
2018-07-15T08:23:39.847Z,23.89
2018-07-15T08:26:07.844Z,23.92
2018-07-15T08:28:35.768Z,23.98
2018-07-15T08:31:03.802Z,24.03
2018-07-15T08:33:35.299Z,24.07
2018-07-15T08:36:02.911Z,24.12
2018-07-15T08:38:30.809Z,24.18
2018-07-15T08:40:58.695Z,24.22
2018-07-15T08:43:26.367Z,24.27
2018-07-15T08:45:55.149Z,24.32
2018-07-15T08:48:24.511Z,24.41
2018-07-15T08:50:52.103Z,24.45
2018-07-15T08:53:19.991Z,24.52
2018-07-15T08:55:48.194Z,24.57
2018-07-15T08:58:15.803Z,24.66
2018-07-15T09:00:43.900Z,24.74
2018-07-15T09:03:11.574Z,24.77
2018-07-15T09:05:39.202Z,24.82
2018-07-15T09:08:07.261Z,24.88
2018-07-15T09:10:34.904Z,24.95
2018-07-15T09:13:03.266Z,25.03
2018-07-15T09:15:32.001Z,25.12
2018-07-15T09:18:00.293Z,25.19
2018-07-15T09:20:28.983Z,25.33
2018-07-15T09:25:30.422Z,25.59
2018-07-15T09:27:58.055Z,25.69
2018-07-15T09:30:26.645Z,25.78
2018-07-15T09:32:55.406Z,25.91
2018-07-15T09:35:23.298Z,25.99
2018-07-15T09:37:52.126Z,26.07
2018-07-15T09:40:21.322Z,26.11
2018-07-15T09:42:50.327Z,26.20
2018-07-15T09:45:18.433Z,26.31
2018-07-15T09:47:46.134Z,26.43
2018-07-15T09:50:14.389Z,26.55
2018-07-15T09:52:42.251Z,26.63
2018-07-15T09:55:10.971Z,26.71
2018-07-15T09:57:39.336Z,26.86
2018-07-15T10:00:07.351Z,27.09
2018-07-15T10:02:35.368Z,27.33
2018-07-15T10:05:03.924Z,27.59
2018-07-15T10:07:33.650Z,27.83
2018-07-15T10:10:06.086Z,28.01
2018-07-15T10:12:33.831Z,28.32
2018-07-15T10:15:03.446Z,28.68
2018-07-15T10:17:31.734Z,29.07
2018-07-15T10:20:00.939Z,29.34
2018-07-15T10:22:32.551Z,29.68
2018-07-15T10:25:03.808Z,30.07
2018-07-15T10:27:31.634Z,30.33
2018-07-15T10:29:59.568Z,30.51
2018-07-15T10:32:29.492Z,30.74
2018-07-15T10:34:57.760Z,31.00
2018-07-15T10:37:26.462Z,31.29
2018-07-15T10:39:56.336Z,31.59
2018-07-15T10:42:24.630Z,31.93
2018-07-15T10:44:53.163Z,32.21
2018-07-15T10:47:21.691Z,32.45
2018-07-15T10:49:52.636Z,32.65
2018-07-15T10:52:20.507Z,32.89
2018-07-15T10:54:48.665Z,33.12
2018-07-15T10:57:16.500Z,33.32
2018-07-15T10:59:47.210Z,33.54
2018-07-15T11:02:15.667Z,33.69
2018-07-15T11:04:43.299Z,33.86
2018-07-15T11:07:12.015Z,33.99
2018-07-15T11:09:39.699Z,34.17
2018-07-15T11:12:08.251Z,34.30
2018-07-15T11:14:37.280Z,34.44
2018-07-15T11:17:05.448Z,34.63
2018-07-15T11:19:33.628Z,34.77
2018-07-15T11:22:01.527Z,34.94
2018-07-15T11:24:32.715Z,35.09
2018-07-15T11:27:00.579Z,35.32
2018-07-15T11:29:29.274Z,35.52
2018-07-15T11:31:57.837Z,35.66
2018-07-15T11:34:26.596Z,35.79
2018-07-15T11:36:54.455Z,35.83
2018-07-15T11:39:22.482Z,35.91
2018-07-15T11:41:50.224Z,35.99
2018-07-15T11:44:18.883Z,36.12
2018-07-15T11:46:46.461Z,36.34
2018-07-15T11:49:14.035Z,36.54
2018-07-15T11:51:41.943Z,36.66
2018-07-15T11:54:10.346Z,36.79
2018-07-15T11:56:37.978Z,36.94
2018-07-15T11:59:06.419Z,37.13
2018-07-15T12:01:35.360Z,37.26
2018-07-15T12:04:03.539Z,37.39
2018-07-15T12:06:35.676Z,37.45
2018-07-15T12:09:08.543Z,37.63
2018-07-15T12:11:36.216Z,37.75
2018-07-15T12:14:03.966Z,37.85
2018-07-15T12:16:31.624Z,38.01
2018-07-15T12:18:59.595Z,38.21
2018-07-15T12:21:28.376Z,38.29
2018-07-15T12:23:57.385Z,38.36
2018-07-15T12:26:25.251Z,38.43
2018-07-15T12:28:52.892Z,38.46
2018-07-15T12:31:20.497Z,38.51
2018-07-15T12:33:50.730Z,38.58
2018-07-15T12:36:18.309Z,38.74
2018-07-15T12:38:46.689Z,38.88
2018-07-15T12:41:14.556Z,38.97
2018-07-15T12:43:43.263Z,38.99
2018-07-15T12:46:11.699Z,39.07
2018-07-15T12:48:39.614Z,39.00
2018-07-15T12:51:08.168Z,39.07
2018-07-15T12:53:37.365Z,39.13
2018-07-15T12:56:05.259Z,39.17
2018-07-15T12:58:33.670Z,39.10
2018-07-15T13:01:02.167Z,39.05
2018-07-15T13:03:31.481Z,39.10
2018-07-15T13:05:59.303Z,39.09
2018-07-15T13:08:26.933Z,39.13
2018-07-15T13:10:55.406Z,39.14
2018-07-15T13:13:25.184Z,39.17
2018-07-15T13:15:52.794Z,39.25
2018-07-15T13:18:21.276Z,39.48
2018-07-15T13:20:50.359Z,39.74
2018-07-15T13:23:20.868Z,39.77
2018-07-15T13:25:50.374Z,39.92
2018-07-15T13:28:19.480Z,39.97
2018-07-15T13:31:01.243Z,40.01
2018-07-15T13:33:29.130Z,39.99
2018-07-15T13:35:57.296Z,39.98
2018-07-15T13:38:26.290Z,39.99
2018-07-15T13:40:55.349Z,40.04
2018-07-15T13:43:22.995Z,40.00
2018-07-15T13:45:55.300Z,39.83
2018-07-15T13:48:23.215Z,39.81
2018-07-15T13:50:50.827Z,39.93
2018-07-15T13:53:19.276Z,40.11
2018-07-15T13:55:48.372Z,40.18
2018-07-15T13:58:15.948Z,40.37
2018-07-15T14:00:43.568Z,40.15
2018-07-15T14:03:11.439Z,40.05
2018-07-15T14:05:39.307Z,40.21
2018-07-15T14:08:11.431Z,40.18
2018-07-15T14:10:39.338Z,40.03
2018-07-15T14:13:10.252Z,40.16
2018-07-15T14:15:37.855Z,40.20
2018-07-15T14:18:05.972Z,40.44
2018-07-15T14:20:35.350Z,40.64
2018-07-15T14:23:03.256Z,40.76
2018-07-15T14:25:31.360Z,41.01
2018-07-15T14:28:00.128Z,41.25
2018-07-15T14:30:27.691Z,41.20
2018-07-15T14:32:56.496Z,41.06
2018-07-15T14:35:25.639Z,41.01
2018-07-15T14:37:53.217Z,40.92
2018-07-15T14:40:21.189Z,40.89
2018-07-15T14:42:48.814Z,41.03
2018-07-15T14:45:17.201Z,41.06
2018-07-15T14:47:47.673Z,41.05
2018-07-15T14:50:15.280Z,41.07
2018-07-15T14:52:43.596Z,41.21
2018-07-15T14:55:11.467Z,41.37
2018-07-15T14:57:40.040Z,41.50
2018-07-15T15:00:07.676Z,41.63
2018-07-15T15:02:36.479Z,41.74
2018-07-15T15:05:04.090Z,41.94
2018-07-15T15:07:31.715Z,42.14
2018-07-15T15:10:00.627Z,42.19
2018-07-15T15:15:03.590Z,42.31
2018-07-15T15:17:32.360Z,42.36
2018-07-15T15:20:00.842Z,42.45
2018-07-15T15:22:28.491Z,42.60
2018-07-15T15:24:56.338Z,42.97
2018-07-15T15:27:25.614Z,43.25
2018-07-15T15:29:53.223Z,43.35
2018-07-15T15:32:23.746Z,43.18
2018-07-15T15:34:51.630Z,42.93
2018-07-15T15:37:21.210Z,42.63
2018-07-15T15:39:49.786Z,42.43
2018-07-15T15:42:19.519Z,42.18
2018-07-15T15:44:48.622Z,42.03
2018-07-15T15:47:17.198Z,41.94
2018-07-15T15:49:45.377Z,41.75
2018-07-15T15:52:13.546Z,41.23
2018-07-15T15:54:43.503Z,40.80
2018-07-15T15:57:11.294Z,40.59
2018-07-15T15:59:39.144Z,40.41
2018-07-15T16:02:08.371Z,40.13
2018-07-15T16:04:39.238Z,40.11
2018-07-15T16:07:07.808Z,40.09
2018-07-15T16:09:38.498Z,40.12
2018-07-15T16:12:06.061Z,40.03
2018-07-15T16:14:34.245Z,40.00
2018-07-15T16:17:02.867Z,39.97
2018-07-15T16:19:31.959Z,39.89
2018-07-15T16:22:00.516Z,39.84
2018-07-15T16:24:28.424Z,39.72
2018-07-15T16:26:56.226Z,39.53
2018-07-15T16:29:24.420Z,38.92
2018-07-15T16:31:53.316Z,37.70
2018-07-15T16:34:21.483Z,36.26
2018-07-15T16:36:49.813Z,34.92
2018-07-15T16:39:19.299Z,33.73
2018-07-15T16:41:48.303Z,32.73
2018-07-15T16:44:17.899Z,31.96
2018-07-15T16:46:47.483Z,31.32
2018-07-15T16:49:15.729Z,30.81
2018-07-15T16:51:44.510Z,30.39
2018-07-15T16:54:12.368Z,30.17
2018-07-15T16:56:42.442Z,30.54
2018-07-15T16:59:11.178Z,30.77
2018-07-15T17:01:40.423Z,30.53
2018-07-15T17:04:09.451Z,30.10
2018-07-15T17:06:37.870Z,29.67
2018-07-15T17:09:08.624Z,29.33
2018-07-15T17:11:36.551Z,29.04
2018-07-15T17:14:04.169Z,28.78
2018-07-15T17:16:32.899Z,28.50
2018-07-15T17:19:01.449Z,28.25
2018-07-15T17:21:31.526Z,28.05
2018-07-15T17:23:59.377Z,27.89
2018-07-15T17:26:27.117Z,27.77
2018-07-15T17:28:54.698Z,27.66
2018-07-15T17:31:23.162Z,27.55
2018-07-15T17:33:50.995Z,27.45
2018-07-15T17:36:19.804Z,27.35
2018-07-15T17:38:47.663Z,27.28
2018-07-15T17:41:16.298Z,27.17
2018-07-15T17:43:46.439Z,27.08
2018-07-15T17:46:15.934Z,27.02
2018-07-15T17:48:43.470Z,26.95
2018-07-15T17:51:11.297Z,26.87
2018-07-15T17:53:40.470Z,26.82
2018-07-15T17:56:08.070Z,26.73
2018-07-15T17:58:36.506Z,26.67
2018-07-15T18:01:05.807Z,26.60
2018-07-15T18:03:34.527Z,26.56
2018-07-15T18:06:02.163Z,26.48
2018-07-15T18:08:30.057Z,26.41
2018-07-15T18:10:57.759Z,26.34
2018-07-15T18:13:25.338Z,26.27
2018-07-15T18:15:53.846Z,26.21
2018-07-15T18:18:21.415Z,26.13
2018-07-15T18:20:51.788Z,26.07
2018-07-15T18:23:20.425Z,25.99
2018-07-15T18:25:48.057Z,25.91
2018-07-15T18:28:16.254Z,25.86
2018-07-15T18:30:44.491Z,25.79
2018-07-15T18:33:13.112Z,25.74
2018-07-15T18:35:45.979Z,25.67
2018-07-15T18:38:16.514Z,25.62
2018-07-15T18:40:45.339Z,25.56
2018-07-15T18:43:14.415Z,25.51
2018-07-15T18:45:42.758Z,25.44
2018-07-15T18:48:13.773Z,25.39
2018-07-15T18:50:41.428Z,25.34
2018-07-15T18:53:08.999Z,25.29
2018-07-15T18:55:36.878Z,25.22
2018-07-15T18:58:06.228Z,25.16
2018-07-15T19:00:35.426Z,25.09
2018-07-15T19:03:06.595Z,25.01
2018-07-15T19:05:35.279Z,24.94
2018-07-15T19:08:03.765Z,24.86
2018-07-15T19:10:31.623Z,24.76
2018-07-15T19:13:01.067Z,24.67
2018-07-15T19:15:29.274Z,24.58
2018-07-15T19:17:59.359Z,24.50
2018-07-15T19:20:28.143Z,24.38
2018-07-15T19:22:56.768Z,24.27
2018-07-15T19:25:25.296Z,24.20
2018-07-15T19:27:52.914Z,24.11
2018-07-15T19:30:20.499Z,24.03
2018-07-15T19:32:48.496Z,23.96
2018-07-15T19:35:17.459Z,23.87
2018-07-15T19:40:19.271Z,23.69
2018-07-15T19:42:47.705Z,23.60
2018-07-15T19:45:17.909Z,23.52
2018-07-15T19:47:46.885Z,23.45
2018-07-15T19:50:14.479Z,23.37
2018-07-15T19:52:43.691Z,23.28
2018-07-15T19:55:12.575Z,23.21
2018-07-15T19:57:41.404Z,23.13
2018-07-15T20:00:09.199Z,23.05
2018-07-15T20:02:38.507Z,22.98
2018-07-15T20:05:07.417Z,22.90
2018-07-15T20:07:35.043Z,22.83
2018-07-15T20:10:03.579Z,22.76
2018-07-15T20:12:33.094Z,22.68
2018-07-15T20:15:01.021Z,22.62
2018-07-15T20:17:30.049Z,22.59
2018-07-15T20:19:58.299Z,22.51
2018-07-15T20:22:26.492Z,22.41
2018-07-15T20:24:54.587Z,22.31
2018-07-15T20:27:22.199Z,22.23
2018-07-15T20:29:51.132Z,22.15
2018-07-15T20:32:20.499Z,22.05
2018-07-15T20:34:50.880Z,21.96
2018-07-15T20:37:18.697Z,21.87
2018-07-15T20:39:46.596Z,21.79
2018-07-15T20:42:14.229Z,21.73
2018-07-15T20:44:42.454Z,21.68
2018-07-15T20:47:10.941Z,21.64
2018-07-15T20:49:38.518Z,21.57
2018-07-15T20:52:08.660Z,21.49
2018-07-15T20:54:38.677Z,21.40
2018-07-15T20:57:06.588Z,21.30
2018-07-15T20:59:34.447Z,21.18
2018-07-15T21:02:02.583Z,21.08
2018-07-15T21:04:30.159Z,20.96
2018-07-15T21:07:01.305Z,20.88
2018-07-15T21:09:30.740Z,20.78
2018-07-15T21:11:59.684Z,20.69
2018-07-15T21:14:28.578Z,20.61
2018-07-15T21:16:57.274Z,20.53
2018-07-15T21:19:24.871Z,20.46
2018-07-15T21:21:55.911Z,20.39
2018-07-15T21:24:25.191Z,20.31
2018-07-15T21:26:52.867Z,20.26
2018-07-15T21:29:22.346Z,20.20
2018-07-15T21:31:50.190Z,20.13
2018-07-15T21:34:18.031Z,20.08
2018-07-15T21:36:45.635Z,20.03
2018-07-15T21:39:13.513Z,19.98
2018-07-15T21:41:42.445Z,19.94
2018-07-15T21:44:11.725Z,19.92
2018-07-15T21:46:40.461Z,19.86
2018-07-15T21:49:09.327Z,19.79
2018-07-15T21:51:37.175Z,19.70
2018-07-15T21:54:05.703Z,19.58
2018-07-15T21:56:33.308Z,19.46
2018-07-15T21:59:03.044Z,19.33
2018-07-15T22:01:31.259Z,19.19
2018-07-15T22:03:59.583Z,19.03
2018-07-15T22:06:27.451Z,18.91
2018-07-15T22:08:55.040Z,18.75
2018-07-15T22:11:22.615Z,18.56
2018-07-15T22:13:51.077Z,18.43
2018-07-15T22:16:18.654Z,18.34
2018-07-15T22:18:46.218Z,18.30
2018-07-15T22:21:15.376Z,18.27
2018-07-15T22:23:43.688Z,18.26
2018-07-15T22:26:11.326Z,18.25
2018-07-15T22:28:39.198Z,18.24
2018-07-15T22:31:06.771Z,18.22
2018-07-15T22:33:35.580Z,18.16
2018-07-15T22:36:03.636Z,18.10
2018-07-15T22:38:31.455Z,18.03
2018-07-15T22:40:59.868Z,17.98
2018-07-15T22:43:27.741Z,17.94
2018-07-15T22:45:55.499Z,17.90
2018-07-15T22:48:23.095Z,17.87
2018-07-15T22:50:51.002Z,17.82
2018-07-15T22:53:19.236Z,17.76
2018-07-15T22:55:46.837Z,17.67
2018-07-15T22:58:14.693Z,17.59
2018-07-15T23:00:42.251Z,17.51
2018-07-15T23:03:09.807Z,17.45
2018-07-15T23:05:39.267Z,17.38
2018-07-15T23:08:07.239Z,17.32
2018-07-15T23:10:34.803Z,17.25
2018-07-15T23:13:03.428Z,17.22
2018-07-15T23:15:31.479Z,17.18
2018-07-15T23:17:59.378Z,17.15
2018-07-15T23:20:27.437Z,17.08
2018-07-15T23:22:55.339Z,17.00
2018-07-15T23:25:23.976Z,16.91
2018-07-15T23:27:51.567Z,16.84
2018-07-15T23:30:19.140Z,16.79
2018-07-15T23:32:47.183Z,16.76
2018-07-15T23:35:14.782Z,16.76
2018-07-15T23:37:42.379Z,16.77
2018-07-15T23:40:09.963Z,16.78
2018-07-15T23:42:38.742Z,16.78
2018-07-15T23:45:06.958Z,16.79
2018-07-15T23:47:34.598Z,16.78
2018-07-15T23:50:02.288Z,16.74
2018-07-15T23:52:30.408Z,16.66
2018-07-15T23:54:58.039Z,16.61
2018-07-15T23:57:25.672Z,16.54
2018-07-15T23:59:53.271Z,16.51
